Ocala, FL (34470)

3:52 PM EST on January 25, 2015 (GMT -0500)
Brookstone-II | Change Station
CLOSE
Current Station
Personal Weather Station
Location: Ocala, FL
Elevation: 144 ft
Nearby Weather Stations

Elev 144 ft 29.15 °N, 82.13 °W | Updated 3 seconds ago

Clear
Clear
62.4 °F
Feels Like 62.4 °F
N
2.0
Wind Variable Wind from South
Gusts 4.0 mph

Today
High -- | Low -- °F
--% Chance of Precip.
Yesterday
High -- | Low -- °F
Precip. -- in
7:20 AM 6:00 PM
Waxing Crescent, 35% visible
Pressure 29.97 in
Visibility 10.0 miles
Clouds Clear
Dew Point 47 °F
Humidity 57%
Rainfall 0.00 in
Snow Depth Not available.
UV 2 out of 12
Pollen 7.50 out of 12
Air Quality Not available.
Flu Activity Not available.
METAR KOCF 252050Z 24008KT 10SM CLR 17/04 A2997

More Conditions Fewer Conditions

Pressure 29.97 in
Visibility 10.0 miles
Clouds Clear
Dew Point 47 °F
Humidity 57%
Rainfall 0.00 in
Snow Depth Not available.
UV 2 out of 12
Pollen 7.50 out of 12
Air Quality Not available.
Flu Activity Not available.
METAR KOCF 252050Z 24008KT 10SM CLR 17/04 A2997

More Conditions Fewer Conditions

10-Day Weather Forecast

Almanac

Astronomy

Jan. 25, 2015 Rise Set
Actual Time
Civil Twilight
Nautical Twilight
Astronomical Twilight
Moon
Length of Visible Light
Length of Day
Tomorrow will be .
, % of the Moon is Illuminated

Today's Extremes

State Highs State Lows

Community

WunderPhotos

Upload Photos

1,790,041 photos uploaded!

WunderBlogs® & News

Nearby

Air Quality

  Air Quality AQ Index Pollutant
Not available.

Snow Depth

Station Depth Elevation

Earthquake Activity

City Distance Mag. Time & Date
Minimum magnitude displayed is 2.5.

Coastal Water Temperatures

Place Temperature

Nearby Weather Stations